createdAt,value
2023-02-20T00:01:07.415Z,101571.75
2023-02-20T00:03:35.280Z,101558.81
2023-02-20T00:06:04.535Z,101570.84
2023-02-20T00:08:32.408Z,101561.28
2023-02-20T00:11:00.254Z,101553.72
2023-02-20T00:13:28.124Z,101544.16
2023-02-20T00:15:56.081Z,101534.63
2023-02-20T00:18:23.936Z,101533.00
2023-02-20T00:20:51.801Z,101527.00
2023-02-20T00:23:21.049Z,101523.47
2023-02-20T00:25:48.898Z,101514.88
2023-02-20T00:28:16.780Z,101507.19
2023-02-20T00:30:44.651Z,101511.41
2023-02-20T00:33:14.894Z,101496.75
2023-02-20T00:35:42.755Z,101487.25
2023-02-20T00:38:10.607Z,101468.25
2023-02-20T00:40:39.863Z,101479.44
2023-02-20T00:43:07.689Z,101451.09
2023-02-20T00:45:36.339Z,101448.44
2023-02-20T00:48:04.512Z,101468.16
2023-02-20T00:50:32.360Z,101432.13
2023-02-20T00:53:00.250Z,101421.78
2023-02-20T00:55:28.153Z,101426.03
2023-02-20T00:57:57.496Z,101406.34
2023-02-20T01:00:27.539Z,101422.56
2023-02-20T01:02:55.602Z,101396.88
2023-02-20T01:05:24.531Z,101397.63
2023-02-20T01:07:54.337Z,101382.22
2023-02-20T01:10:22.458Z,101377.06
2023-02-20T01:12:50.290Z,101364.16
2023-02-20T01:15:19.582Z,101352.25
2023-02-20T01:17:47.838Z,101353.13
2023-02-20T01:20:16.051Z,101347.94
2023-02-20T01:22:44.014Z,101347.94
2023-02-20T01:25:12.283Z,101324.78
2023-02-20T01:27:40.273Z,101322.13
2023-02-20T01:30:09.858Z,101319.66
2023-02-20T01:32:39.230Z,101325.63
2023-02-20T01:35:07.895Z,101302.50
2023-02-20T01:37:35.954Z,101304.97
2023-02-20T01:40:04.887Z,101289.63
2023-02-20T01:42:35.081Z,101291.38
2023-02-20T01:45:31.672Z,101284.56
2023-02-20T01:48:00.967Z,101267.41
2023-02-20T01:50:31.975Z,101246.06
2023-02-20T01:53:02.940Z,101246.03
2023-02-20T01:55:35.638Z,101233.22
2023-02-20T01:58:07.322Z,101227.22
2023-02-20T02:00:35.679Z,101218.63
2023-02-20T02:03:08.064Z,101211.78
2023-02-20T02:05:36.435Z,101199.78
2023-02-20T02:08:06.019Z,101196.34
2023-02-20T02:10:38.887Z,101190.41
2023-02-20T02:13:07.936Z,101188.69
2023-02-20T02:16:52.349Z,101200.81
2023-02-20T02:19:39.295Z,101200.75
2023-02-20T02:22:30.833Z,101188.75
2023-02-20T02:25:13.806Z,101186.25
2023-02-20T02:28:09.489Z,101174.22
2023-02-20T02:31:08.081Z,101180.25
2023-02-20T02:34:09.338Z,101179.44
2023-02-20T02:36:42.959Z,101170.00
2023-02-20T02:39:18.401Z,101183.69
2023-02-20T02:41:52.728Z,101152.81
2023-02-20T02:44:26.106Z,101131.34
2023-02-20T02:46:58.556Z,101133.09
2023-02-20T02:49:31.351Z,101128.81
2023-02-20T02:52:01.703Z,101146.81
2023-02-20T02:54:29.988Z,101131.41
2023-02-20T02:57:20.567Z,101134.88
2023-02-20T02:59:49.172Z,101139.19
2023-02-20T03:02:19.346Z,101140.88
2023-02-20T03:04:50.324Z,101124.63
2023-02-20T03:07:20.823Z,101113.47
2023-02-20T03:09:52.123Z,101113.53
2023-02-20T03:12:21.433Z,101107.44
2023-02-20T03:15:13.023Z,101113.50
2023-02-20T03:17:43.636Z,101113.47
2023-02-20T03:20:15.230Z,101107.50
2023-02-20T03:22:48.292Z,101110.13
2023-02-20T03:25:19.327Z,101119.56
2023-02-20T03:27:50.500Z,101128.19
2023-02-20T03:30:22.093Z,101124.69
2023-02-20T03:33:10.503Z,101122.13
2023-02-20T03:35:59.176Z,101114.38
2023-02-20T03:38:47.927Z,101101.47
2023-02-20T03:41:34.383Z,101097.22
2023-02-20T03:44:05.828Z,101086.09
2023-02-20T03:46:35.032Z,101067.25
2023-02-20T03:49:05.730Z,101067.25
2023-02-20T03:51:32.743Z,101071.59
2023-02-20T03:54:07.187Z,101072.53
2023-02-20T03:56:38.607Z,101057.91
2023-02-20T03:59:11.718Z,101065.69
2023-02-20T04:01:40.629Z,101062.25
2023-02-20T04:04:11.912Z,101034.78
2023-02-20T04:06:41.454Z,101037.34
2023-02-20T04:09:13.868Z,101063.97
2023-02-20T04:11:44.969Z,101021.03
2023-02-20T04:14:14.138Z,101022.78
2023-02-20T04:16:46.580Z,101014.19
2023-02-20T04:19:14.903Z,101005.59
2023-02-20T04:21:46.754Z,101029.69
2023-02-20T04:24:20.324Z,101001.31
2023-02-20T04:26:49.157Z,100987.56
2023-02-20T04:29:17.181Z,100990.16
2023-02-20T04:31:45.007Z,100970.41
2023-02-20T04:34:13.474Z,100960.94
2023-02-20T04:36:42.119Z,100952.34
2023-02-20T04:39:10.032Z,100946.34
2023-02-20T04:41:39.728Z,100948.91
2023-02-20T04:44:25.701Z,100945.50
2023-02-20T04:46:56.342Z,100951.53
2023-02-20T04:49:24.486Z,100940.34
2023-02-20T04:51:55.658Z,100943.78
2023-02-20T04:54:23.705Z,100937.75
2023-02-20T04:56:53.423Z,100960.91
2023-02-20T04:59:22.284Z,100943.69
2023-02-20T05:01:52.171Z,100931.63
2023-02-20T05:04:21.183Z,100958.31
2023-02-20T05:06:51.309Z,100932.44
2023-02-20T05:09:19.447Z,100915.28
2023-02-20T05:11:47.310Z,100927.38
2023-02-20T05:14:17.137Z,100894.69
2023-02-20T05:16:45.839Z,100913.59
2023-02-20T05:19:14.270Z,100908.47
2023-02-20T05:22:01.509Z,100902.44
2023-02-20T05:24:29.886Z,100898.13
2023-02-20T05:26:58.105Z,100894.69
2023-02-20T05:29:27.704Z,100888.63
2023-02-20T05:31:55.794Z,100898.09
2023-02-20T05:34:25.786Z,100870.56
2023-02-20T05:36:54.629Z,100883.44
2023-02-20T05:39:22.510Z,100872.25
2023-02-20T05:41:50.321Z,100874.81
2023-02-20T05:44:18.090Z,100887.69
2023-02-20T05:46:47.418Z,100877.34
2023-02-20T05:49:15.147Z,100868.72
2023-02-20T05:51:42.865Z,100863.56
2023-02-20T05:54:13.924Z,100847.22
2023-02-20T05:56:42.783Z,100852.38
2023-02-20T05:59:10.833Z,100831.69
2023-02-20T06:01:38.769Z,100828.25
2023-02-20T06:04:08.102Z,100821.31
2023-02-20T06:06:37.168Z,100830.78
2023-02-20T06:09:07.884Z,100844.53
2023-02-20T06:11:35.888Z,100830.72
2023-02-20T06:14:04.399Z,100818.66
2023-02-20T06:16:32.239Z,100824.66
2023-02-20T06:19:00.943Z,100830.63
2023-02-20T06:21:30.525Z,100840.06
2023-02-20T06:23:58.346Z,100808.16
2023-02-20T06:26:26.175Z,100805.59
2023-02-20T06:28:54.572Z,100794.34
2023-02-20T06:31:23.822Z,100802.09
2023-02-20T06:33:51.835Z,100819.25
2023-02-20T06:36:21.906Z,100828.72
2023-02-20T06:38:51.139Z,100795.97
2023-02-20T06:41:19.046Z,100790.00
2023-02-20T06:43:47.063Z,100783.97
2023-02-20T06:46:15.062Z,100796.88
2023-02-20T06:48:46.808Z,100775.34
2023-02-20T06:51:15.007Z,100796.88
2023-02-20T06:53:43.426Z,100787.34
2023-02-20T06:56:18.580Z,100796.88
2023-02-20T06:58:47.399Z,100801.09
2023-02-20T07:01:15.556Z,100808.00
2023-02-20T07:03:43.664Z,100820.94
2023-02-20T07:06:11.926Z,100776.97
2023-02-20T07:08:39.925Z,100778.69
2023-02-20T07:11:07.826Z,100784.59
2023-02-20T07:13:37.126Z,100769.97
2023-02-20T07:16:05.291Z,100772.53
2023-02-20T07:18:33.194Z,100771.66
2023-02-20T07:21:01.068Z,100772.47
2023-02-20T07:23:28.994Z,100760.41
2023-02-20T07:25:57.032Z,100754.31
2023-02-20T07:28:25.264Z,100757.78
2023-02-20T07:30:54.468Z,100769.84
2023-02-20T07:33:22.295Z,100763.75
2023-02-20T07:35:50.199Z,100780.06
2023-02-20T07:38:18.000Z,100781.78
2023-02-20T07:40:45.798Z,100770.53
2023-02-20T07:43:13.665Z,100746.38
2023-02-20T07:45:43.176Z,100751.56
2023-02-20T07:48:12.352Z,100767.94
2023-02-20T07:50:40.195Z,100755.81
2023-02-20T07:53:08.089Z,100751.44
2023-02-20T07:55:35.857Z,100765.28
2023-02-20T07:58:03.961Z,100760.09
2023-02-20T08:00:31.832Z,100756.59
2023-02-20T08:02:59.946Z,100723.84
2023-02-20T08:05:40.099Z,100745.25
2023-02-20T08:08:11.828Z,100751.31
2023-02-20T08:10:39.799Z,100758.31
2023-02-20T08:13:07.701Z,100715.22
2023-02-20T08:15:35.560Z,100703.03
2023-02-20T08:18:06.038Z,100703.03
2023-02-20T08:20:37.123Z,100703.88
2023-02-20T08:23:05.754Z,100690.06
2023-02-20T08:25:33.691Z,100685.69
2023-02-20T08:28:01.554Z,100690.88
2023-02-20T08:30:29.890Z,100692.50
2023-02-20T08:32:57.835Z,100700.25
2023-02-20T08:35:25.816Z,100701.06
2023-02-20T08:37:55.075Z,100674.22
2023-02-20T08:40:23.147Z,100690.63
2023-02-20T08:42:51.038Z,100681.16
2023-02-20T08:45:18.974Z,100689.69
2023-02-20T08:47:48.583Z,100699.25
2023-02-20T08:50:16.583Z,100666.41
2023-02-20T08:52:45.899Z,100669.06
2023-02-20T08:55:15.143Z,100686.09
2023-02-20T08:57:44.401Z,100664.53
2023-02-20T09:00:14.639Z,100666.25
2023-02-20T09:02:42.722Z,100661.94
2023-02-20T09:05:10.890Z,100636.03
2023-02-20T09:07:38.759Z,100642.13
2023-02-20T09:10:07.207Z,100661.88
2023-02-20T09:12:36.588Z,100651.56
2023-02-20T09:15:04.774Z,100615.28
2023-02-20T09:17:32.669Z,100628.97
2023-02-20T09:20:00.521Z,100634.19
2023-02-20T09:22:28.428Z,100624.69
2023-02-20T09:24:56.279Z,100626.47
2023-02-20T09:27:24.183Z,100617.78
2023-02-20T09:29:53.364Z,100629.84
2023-02-20T09:32:21.236Z,100609.06
2023-02-20T09:34:49.093Z,100622.09
2023-02-20T09:37:16.898Z,100610.88
2023-02-20T09:39:44.983Z,100615.19
2023-02-20T09:42:23.776Z,100617.69
2023-02-20T09:44:59.726Z,100602.16
2023-02-20T09:47:43.398Z,100601.19
2023-02-20T09:50:14.926Z,100600.47
2023-02-20T09:52:46.269Z,100601.19
2023-02-20T09:55:18.044Z,100593.59
2023-02-20T09:57:49.785Z,100593.59
2023-02-20T10:00:23.457Z,100581.53
2023-02-20T10:02:55.829Z,100602.34
2023-02-20T10:05:26.182Z,100574.78
2023-02-20T10:07:54.497Z,100580.94
2023-02-20T10:10:24.791Z,100554.28
2023-02-20T10:13:01.806Z,100564.78
2023-02-20T10:15:35.529Z,100550.94
2023-02-20T10:18:11.265Z,100551.84
2023-02-20T10:20:42.685Z,100538.94
2023-02-20T10:23:15.608Z,100541.50
2023-02-20T10:25:46.034Z,100539.81
2023-02-20T10:28:16.489Z,100535.53
2023-02-20T10:30:47.968Z,100512.13
2023-02-20T10:33:22.637Z,100509.59
2023-02-20T10:35:53.114Z,100537.09
2023-02-20T10:38:23.870Z,100525.91
2023-02-20T10:40:58.597Z,100505.19
2023-02-20T10:43:33.936Z,100501.56
2023-02-20T10:46:11.773Z,100543.84
2023-02-20T10:48:42.787Z,100493.81
2023-02-20T10:51:13.509Z,100498.88
2023-02-20T10:53:46.098Z,100493.50
2023-02-20T10:56:17.098Z,100508.16
2023-02-20T10:58:51.419Z,100494.25
2023-02-20T11:01:23.297Z,100477.00
2023-02-20T11:03:57.301Z,100488.81
2023-02-20T11:06:34.047Z,100465.47
2023-02-20T11:09:02.003Z,100466.31
2023-02-20T11:11:33.481Z,100490.50
2023-02-20T11:14:02.262Z,100474.00
2023-02-20T11:16:33.991Z,100485.97
2023-02-20T11:19:06.151Z,100443.59
2023-02-20T11:21:35.307Z,100471.16
2023-02-20T11:24:19.217Z,100443.63
2023-02-20T11:26:47.282Z,100432.31
2023-02-20T11:29:16.879Z,100433.00
2023-02-20T11:31:47.808Z,100447.63
2023-02-20T11:34:19.018Z,100441.34
2023-02-20T11:36:48.452Z,100442.28
2023-02-20T11:39:22.462Z,100442.13
2023-02-20T11:41:52.080Z,100445.66
2023-02-20T11:44:26.746Z,100444.69
2023-02-20T11:47:18.152Z,100441.16
2023-02-20T11:49:46.422Z,100430.09
2023-02-20T11:52:17.884Z,100444.69
2023-02-20T11:54:47.125Z,100440.31
2023-02-20T11:57:22.786Z,100426.44
2023-02-20T11:59:51.648Z,100439.53
2023-02-20T12:02:28.649Z,100440.31
2023-02-20T12:05:09.290Z,100455.72
2023-02-20T12:07:39.730Z,100451.38
2023-02-20T12:10:20.754Z,100446.25
2023-02-20T12:12:48.762Z,100443.72
2023-02-20T12:15:18.292Z,100438.50
2023-02-20T12:18:08.752Z,100450.38
2023-02-20T12:20:37.710Z,100458.16
2023-02-20T12:23:12.474Z,100469.47
2023-02-20T12:25:50.255Z,100457.31
2023-02-20T12:28:22.459Z,100459.16
2023-02-20T12:31:02.087Z,100469.44
2023-02-20T12:33:48.496Z,100457.41
2023-02-20T12:36:26.604Z,100466.97
2023-02-20T12:38:59.332Z,100463.66
2023-02-20T12:41:32.843Z,100461.75
2023-02-20T12:44:13.784Z,100452.28
2023-02-20T12:46:52.756Z,100447.03
2023-02-20T12:49:43.279Z,100457.53
2023-02-20T12:52:23.632Z,100461.00
2023-02-20T12:54:55.180Z,100454.09
2023-02-20T12:57:29.323Z,100461.88
2023-02-20T13:00:00.496Z,100459.16
2023-02-20T13:02:41.435Z,100453.13
2023-02-20T13:05:13.847Z,100465.28
2023-02-20T13:07:46.279Z,100468.75
2023-02-20T13:10:16.793Z,100470.44
2023-02-20T13:12:44.738Z,100470.38
2023-02-20T13:15:28.769Z,100459.06
2023-02-20T13:18:00.010Z,100457.53
2023-02-20T13:20:33.414Z,100452.66
2023-02-20T13:23:02.870Z,100441.50
2023-02-20T13:25:44.585Z,100439.91
2023-02-20T13:28:24.353Z,100425.28
2023-02-20T13:31:09.037Z,100422.75
2023-02-20T13:33:37.470Z,100451.25
2023-02-20T13:36:07.596Z,100446.22
2023-02-20T13:38:35.524Z,100417.13
2023-02-20T13:41:08.485Z,100415.31
2023-02-20T13:43:36.471Z,100410.13
2023-02-20T13:46:15.005Z,100393.81
2023-02-20T13:48:45.187Z,100404.03
2023-02-20T13:51:34.733Z,100421.47
2023-02-20T13:54:24.740Z,100404.16
2023-02-20T13:56:59.309Z,100390.31
2023-02-20T13:59:28.387Z,100405.25
2023-02-20T14:01:57.961Z,100386.16
2023-02-20T14:04:26.266Z,100380.88
2023-02-20T14:06:58.423Z,100380.16
2023-02-20T14:09:31.458Z,100375.06
2023-02-20T14:12:08.759Z,100375.84
2023-02-20T14:14:39.818Z,100393.19
2023-02-20T14:17:09.838Z,100404.41
2023-02-20T14:19:41.515Z,100374.25
2023-02-20T14:22:23.999Z,100371.63
2023-02-20T14:25:20.205Z,100369.06
2023-02-20T14:27:50.350Z,100399.34
2023-02-20T14:30:20.906Z,100433.00
2023-02-20T14:32:50.267Z,100370.88
2023-02-20T14:35:50.772Z,100379.31
2023-02-20T14:38:29.516Z,100426.03
2023-02-20T14:40:59.646Z,100374.22
2023-02-20T14:43:29.449Z,100387.25
2023-02-20T14:46:02.836Z,100376.81
2023-02-20T14:48:32.186Z,100374.31
2023-02-20T14:51:14.769Z,100382.22
2023-02-20T14:53:44.606Z,100369.28
2023-02-20T14:56:18.248Z,100395.06
2023-02-20T14:58:46.428Z,100385.59
2023-02-20T15:01:37.760Z,100373.50
2023-02-20T15:04:10.832Z,100374.34
2023-02-20T15:06:40.171Z,100366.69
2023-02-20T15:09:21.513Z,100364.00
2023-02-20T15:11:52.487Z,100370.09
2023-02-20T15:14:22.797Z,100377.88
2023-02-20T15:17:07.309Z,100352.06
2023-02-20T15:19:39.374Z,100359.91
2023-02-20T15:22:12.986Z,100372.88
2023-02-20T15:24:42.197Z,100358.19
2023-02-20T15:27:15.587Z,100371.97
2023-02-20T15:29:44.756Z,100360.75
2023-02-20T15:32:19.083Z,100364.09
2023-02-20T15:34:51.820Z,100367.59
2023-02-20T15:37:30.067Z,100377.13
2023-02-20T15:40:21.084Z,100371.00
2023-02-20T15:42:50.135Z,100378.84
2023-02-20T15:45:18.112Z,100384.03
2023-02-20T15:47:46.162Z,100371.00
2023-02-20T15:50:14.091Z,100389.22
2023-02-20T15:52:42.098Z,100376.28
2023-02-20T15:55:16.398Z,100375.31
2023-02-20T15:57:45.980Z,100358.19
2023-02-20T16:00:20.995Z,100394.28
2023-02-20T16:02:51.470Z,100384.91
2023-02-20T16:05:19.485Z,100389.22
2023-02-20T16:07:47.532Z,100395.28
2023-02-20T16:10:18.926Z,100379.66
2023-02-20T16:12:48.025Z,100409.09
2023-02-20T16:15:17.571Z,100375.31
2023-02-20T16:17:45.415Z,100382.25
2023-02-20T16:20:18.337Z,100399.56
2023-02-20T16:22:46.385Z,100382.34
2023-02-20T16:25:18.209Z,100357.31
2023-02-20T16:27:47.708Z,100313.34
2023-02-20T16:30:32.323Z,100315.94
2023-02-20T16:33:02.010Z,100311.69
2023-02-20T16:35:30.027Z,100294.38
2023-02-20T16:37:57.909Z,100296.25
2023-02-20T16:40:27.090Z,100297.03
2023-02-20T16:42:55.161Z,100304.97
2023-02-20T16:45:23.241Z,100316.06
2023-02-20T16:47:52.954Z,100311.78
2023-02-20T16:50:23.513Z,100318.69
2023-02-20T16:52:52.469Z,100299.59
2023-02-20T16:55:22.531Z,100329.81
2023-02-20T16:57:52.154Z,100303.13
2023-02-20T17:00:22.124Z,100309.31
2023-02-20T17:02:50.012Z,100317.81
2023-02-20T17:05:20.146Z,100321.06
2023-02-20T17:07:48.133Z,100329.06
2023-02-20T17:10:16.524Z,100333.28
2023-02-20T17:12:44.698Z,100336.66
2023-02-20T17:15:15.756Z,100328.94
2023-02-20T17:17:43.694Z,100361.66
2023-02-20T17:20:17.435Z,100347.00
2023-02-20T17:22:50.534Z,100342.66
2023-02-20T17:25:25.313Z,100350.41
2023-02-20T17:27:53.447Z,100345.34
2023-02-20T17:30:24.776Z,100353.88
2023-02-20T17:32:52.757Z,100365.97
2023-02-20T17:35:20.586Z,100368.63
2023-02-20T17:37:49.533Z,100371.09
2023-02-20T17:40:18.184Z,100380.59
2023-02-20T17:42:46.138Z,100384.94
2023-02-20T17:45:15.499Z,100392.75
2023-02-20T17:47:45.022Z,100383.28
2023-02-20T17:50:12.891Z,100390.25
2023-02-20T17:52:40.740Z,100389.34
2023-02-20T17:55:09.212Z,100386.75
2023-02-20T17:57:37.055Z,100385.97
2023-02-20T18:00:07.586Z,100395.34
2023-02-20T18:02:35.463Z,100390.19
2023-02-20T18:05:04.910Z,100392.78
2023-02-20T18:07:33.016Z,100403.94
2023-02-20T18:10:02.301Z,100399.78
2023-02-20T18:12:30.134Z,100394.56
2023-02-20T18:14:58.046Z,100401.50
2023-02-20T18:17:25.844Z,100408.31
2023-02-20T18:19:53.677Z,100405.72
2023-02-20T18:22:22.909Z,100399.63
2023-02-20T18:24:50.719Z,100409.16
2023-02-20T18:27:18.593Z,100405.72
2023-02-20T18:29:46.456Z,100418.66
2023-02-20T18:32:14.426Z,100414.34
2023-02-20T18:34:42.286Z,100406.59
2023-02-20T18:37:10.363Z,100392.78
2023-02-20T18:39:40.217Z,100403.97
2023-02-20T18:42:08.155Z,100422.16
2023-02-20T18:44:36.025Z,100411.81
2023-02-20T18:47:04.402Z,100415.03
2023-02-20T18:49:32.388Z,100406.50
2023-02-20T18:52:00.304Z,100409.25
2023-02-20T18:54:32.906Z,100423.91
2023-02-20T18:57:03.432Z,100421.22
2023-02-20T18:59:31.940Z,100417.84
2023-02-20T19:02:05.899Z,100414.34
2023-02-20T19:04:34.175Z,100417.88
2023-02-20T19:07:04.176Z,100412.63
2023-02-20T19:09:34.315Z,100424.78
2023-02-20T19:12:06.528Z,100403.31
2023-02-20T19:14:34.950Z,100405.88
2023-02-20T19:17:03.969Z,100411.00
2023-02-20T19:19:34.429Z,100429.22
2023-02-20T19:22:02.490Z,100437.81
2023-02-20T19:24:30.360Z,100420.88
2023-02-20T19:26:58.328Z,100427.91
2023-02-20T19:29:27.617Z,100438.06
2023-02-20T19:31:55.684Z,100454.44
2023-02-20T19:34:23.755Z,100438.31
2023-02-20T19:36:51.548Z,100494.38
2023-02-20T19:39:19.458Z,100451.38
2023-02-20T19:41:49.807Z,100453.09
2023-02-20T19:44:17.916Z,100465.44
2023-02-20T19:46:47.223Z,100464.66
2023-02-20T19:49:15.210Z,100473.44
2023-02-20T19:51:47.862Z,100467.41
2023-02-20T19:54:16.718Z,100472.59
2023-02-20T19:56:48.788Z,100473.38
2023-02-20T19:59:16.941Z,100492.34
2023-02-20T20:01:50.520Z,100487.84
2023-02-20T20:04:18.908Z,100488.69
2023-02-20T20:06:46.835Z,100496.44
2023-02-20T20:09:23.485Z,100488.72
2023-02-20T20:11:58.307Z,100499.91
2023-02-20T20:14:26.766Z,100502.47
2023-02-20T20:16:56.313Z,100498.25
2023-02-20T20:19:24.358Z,100502.50
2023-02-20T20:21:52.456Z,100506.81
2023-02-20T20:24:20.370Z,100523.16
2023-02-20T20:26:48.361Z,100514.63
2023-02-20T20:29:16.318Z,100523.25
2023-02-20T20:31:44.326Z,100517.25
2023-02-20T20:34:13.589Z,100515.66
2023-02-20T20:36:41.461Z,100517.31
2023-02-20T20:39:09.313Z,100528.50
2023-02-20T20:41:44.892Z,100532.81
2023-02-20T20:44:14.033Z,100528.50
2023-02-20T20:46:42.099Z,100538.84
2023-02-20T20:49:13.208Z,100548.16
2023-02-20T20:51:43.006Z,100543.63
2023-02-20T20:54:11.007Z,100570.16
2023-02-20T20:56:45.384Z,100578.56
2023-02-20T20:59:13.427Z,100574.34
2023-02-20T21:01:42.205Z,100579.47
2023-02-20T21:04:10.214Z,100579.47
2023-02-20T21:06:39.430Z,100585.41
2023-02-20T21:09:07.246Z,100597.50
2023-02-20T21:11:35.606Z,100601.00
2023-02-20T21:14:03.514Z,100604.38
2023-02-20T21:16:31.427Z,100603.50
2023-02-20T21:18:59.299Z,100612.16
2023-02-20T21:21:27.795Z,100626.81
2023-02-20T21:23:57.028Z,100621.56
2023-02-20T21:26:26.564Z,100628.50
2023-02-20T21:28:55.396Z,100612.16
2023-02-20T21:31:23.549Z,100625.19
2023-02-20T21:33:52.101Z,100632.84
2023-02-20T21:36:20.569Z,100626.81
2023-02-20T21:38:48.523Z,100621.72
2023-02-20T21:41:34.727Z,100632.91
2023-02-20T21:44:20.052Z,100634.75
2023-02-20T21:46:49.996Z,100641.53
2023-02-20T21:49:17.879Z,100657.00
2023-02-20T21:51:45.747Z,100651.13
2023-02-20T21:54:13.964Z,100657.94
2023-02-20T21:56:43.424Z,100645.00
2023-02-20T21:59:10.177Z,100657.16
2023-02-20T22:01:39.093Z,100638.25
2023-02-20T22:04:07.153Z,100634.78
2023-02-20T22:06:34.092Z,100630.44
2023-02-20T22:09:19.772Z,100634.75
2023-02-20T22:12:06.562Z,100645.25
2023-02-20T22:14:52.189Z,100623.75
2023-02-20T22:17:37.414Z,100622.03
2023-02-20T22:20:23.846Z,100628.09
2023-02-20T22:23:09.238Z,100626.41
2023-02-20T22:25:54.800Z,100615.28
2023-02-20T22:28:41.553Z,100616.97
2023-02-20T22:31:26.822Z,100620.53
2023-02-20T22:34:12.198Z,100611.81
2023-02-20T22:36:57.426Z,100612.66
2023-02-20T22:39:42.690Z,100626.41
2023-02-20T22:42:34.628Z,100606.75
2023-02-20T22:45:22.617Z,100611.00
2023-02-20T22:48:07.905Z,100616.25
2023-02-20T22:50:53.181Z,100624.00
2023-02-20T22:53:38.586Z,100599.94
2023-02-20T22:56:24.504Z,100592.88
2023-02-20T22:59:10.202Z,100595.56
2023-02-20T23:01:56.821Z,100601.53
2023-02-20T23:04:42.226Z,100599.84
2023-02-20T23:07:27.671Z,100602.47
2023-02-20T23:10:13.053Z,100598.09
2023-02-20T23:12:58.488Z,100605.84
2023-02-20T23:15:43.627Z,100623.06
2023-02-20T23:18:30.916Z,100611.78
2023-02-20T23:21:16.409Z,100619.53
2023-02-20T23:24:01.974Z,100623.06
2023-02-20T23:26:47.312Z,100625.63
2023-02-20T23:29:32.599Z,100609.34
2023-02-20T23:32:17.890Z,100612.88
2023-02-20T23:35:04.474Z,100619.78
2023-02-20T23:37:49.872Z,100611.31
2023-02-20T23:40:37.099Z,100610.38
2023-02-20T23:43:23.136Z,100610.50
2023-02-20T23:46:08.540Z,100603.53
2023-02-20T23:48:54.524Z,100599.31
2023-02-20T23:51:41.678Z,100600.19
2023-02-20T23:54:27.574Z,100609.66
2023-02-20T23:57:13.014Z,100602.75
2023-02-20T23:59:58.299Z,100598.38
